Time;durP1;ratioP1;P1;durP2;ratioP2;P2;SDS_P1;SDS_P2;PMS_P1;PMS_P2;Temp;Humidity;BMP_temperature;BMP_pressure;BME280_temperature;BME280_humidity;BME280_pressure;Samples;Min_cycle;Max_cycle;Signal;HPM_P1;HPM_P2
2022/11/13 00:01:16;;;;;;;5.53;3.77;;;;;;;9.91;100.00;95857.72;5073976;28;20197;-63
2022/11/13 00:03:41;;;;;;;5.43;4.13;;;;;;;10.01;100.00;95886.72;5073911;28;20189;-63
2022/11/13 00:06:08;;;;;;;6.13;4.43;;;;;;;9.98;100.00;95878.44;5074178;28;20677;-61
2022/11/13 00:08:34;;;;;;;7.50;5.00;;;;;;;10.05;100.00;95890.69;5073889;28;20181;-61
2022/11/13 00:11:02;;;;;;;5.27;4.57;;;;;;;10.03;100.00;95877.25;5073647;28;20267;-60
2022/11/13 00:13:27;;;;;;;6.80;4.60;;;;;;;9.99;100.00;95883.44;5073653;28;20196;-60
2022/11/13 00:15:57;;;;;;;5.87;4.80;;;;;;;9.93;100.00;95863.50;5074298;28;20220;-60
2022/11/13 00:18:23;;;;;;;8.30;5.53;;;;;;;9.83;100.00;95846.41;5073833;28;20595;-62
2022/11/13 00:20:48;;;;;;;7.37;5.50;;;;;;;9.89;100.00;95825.69;5073978;28;20228;-61
2022/11/13 00:23:13;;;;;;;6.87;4.73;;;;;;;9.91;100.00;95841.66;5073798;28;20185;-60
2022/11/13 00:25:39;;;;;;;8.63;6.07;;;;;;;9.78;100.00;95833.16;5073803;28;20732;-63
2022/11/13 00:28:04;;;;;;;8.27;6.10;;;;;;;9.66;100.00;95818.69;5073577;28;20188;-59
2022/11/13 00:30:30;;;;;;;6.83;4.97;;;;;;;9.83;100.00;95826.91;5055617;28;20650;-59
2022/11/13 00:32:55;;;;;;;9.33;5.43;;;;;;;9.96;100.00;95855.69;5073607;28;20193;-60
2022/11/13 00:35:20;;;;;;;6.03;4.57;;;;;;;9.89;100.00;95836.69;5073330;28;20213;-60
2022/11/13 00:37:46;;;;;;;8.53;5.73;;;;;;;9.79;100.00;95832.28;5073383;28;20193;-64
2022/11/13 00:40:11;;;;;;;8.50;6.13;;;;;;;9.78;100.00;95831.44;5073806;28;20217;-60
2022/11/13 00:42:36;;;;;;;7.23;5.00;;;;;;;9.76;100.00;95818.03;5073338;28;20196;-61
2022/11/13 00:45:02;;;;;;;8.03;5.33;;;;;;;9.81;100.00;95816.03;5073759;28;20287;-61
2022/11/13 00:47:27;;;;;;;6.00;5.10;;;;;;;9.83;100.00;95821.81;5073140;28;20267;-59
2022/11/13 00:49:53;;;;;;;8.40;5.30;;;;;;;9.84;100.00;95825.16;5073322;28;20327;-60
2022/11/13 00:52:18;;;;;;;6.13;4.57;;;;;;;9.75;100.00;95811.34;5073129;28;20174;-60
2022/11/13 00:54:44;;;;;;;7.03;5.33;;;;;;;9.76;100.00;95814.66;5071985;28;20220;-59
2022/11/13 00:57:09;;;;;;;7.63;5.77;;;;;;;9.87;100.00;95830.06;5073360;28;20193;-60
2022/11/13 00:59:35;;;;;;;7.27;5.17;;;;;;;9.79;100.00;95817.84;5055123;28;20225;-61
2022/11/13 01:02:00;;;;;;;7.53;4.67;;;;;;;9.76;100.00;95819.75;5054876;28;20246;-60
2022/11/13 01:04:28;;;;;;;6.90;5.83;;;;;;;9.76;100.00;95810.41;5073173;28;20215;-61
2022/11/13 01:06:54;;;;;;;7.37;5.60;;;;;;;9.75;100.00;95815.59;5073063;28;20187;-61
2022/11/13 01:09:19;;;;;;;8.57;6.27;;;;;;;9.76;100.00;95825.66;5054938;28;20693;-64
2022/11/13 01:11:44;;;;;;;10.10;5.90;;;;;;;9.72;100.00;95803.91;5072974;28;20242;-64
2022/11/13 01:14:10;;;;;;;7.57;6.07;;;;;;;9.82;100.00;95809.22;5072916;28;20213;-61
2022/11/13 01:16:35;;;;;;;7.17;5.67;;;;;;;9.85;100.00;95821.72;5072843;28;20698;-60
2022/11/13 01:19:01;;;;;;;7.23;5.70;;;;;;;9.90;100.00;95820.50;5072526;28;20224;-64
2022/11/13 01:21:27;;;;;;;8.90;6.10;;;;;;;9.85;100.00;95817.47;5072882;28;20306;-60
2022/11/13 01:23:53;;;;;;;9.33;6.83;;;;;;;9.76;100.00;95805.34;5072886;28;20185;-60
2022/11/13 01:26:29;;;;;;;8.33;6.23;;;;;;;9.85;100.00;95822.53;5072648;28;20185;-60
2022/11/13 01:28:56;;;;;;;7.70;6.00;;;;;;;9.81;100.00;95815.22;5072713;28;20582;-61
2022/11/13 01:31:26;;;;;;;8.97;6.27;;;;;;;9.83;100.00;95818.47;5072745;28;20650;-61
2022/11/13 01:33:51;;;;;;;8.87;5.70;;;;;;;9.80;100.00;95829.63;5072453;28;20181;-60
2022/11/13 01:36:21;;;;;;;9.10;6.10;;;;;;;9.80;100.00;95816.94;5072662;28;20549;-60
2022/11/13 01:38:48;;;;;;;8.40;6.03;;;;;;;9.80;100.00;95813.56;5072290;28;20222;-61
2022/11/13 01:41:20;;;;;;;8.33;5.73;;;;;;;9.94;100.00;95829.56;5072491;28;20258;-63
2022/11/13 01:43:46;;;;;;;8.33;6.70;;;;;;;9.90;100.00;95817.16;5072324;28;20193;-62
2022/11/13 01:46:23;;;;;;;10.53;7.00;;;;;;;10.04;100.00;95817.91;5072320;28;20208;-60
2022/11/13 01:49:06;;;;;;;7.73;6.10;;;;;;;10.12;100.00;95815.72;5072410;28;20184;-61
2022/11/13 01:51:38;;;;;;;7.53;5.83;;;;;;;10.23;100.00;95819.31;5072316;28;20188;-60
2022/11/13 01:54:09;;;;;;;8.30;5.63;;;;;;;10.19;100.00;95839.03;5079852;22;20205;-63
2022/11/13 01:56:35;;;;;;;7.27;5.67;;;;;;;10.24;100.00;95814.13;5072449;28;20706;-60
2022/11/13 01:59:17;;;;;;;6.70;5.37;;;;;;;10.16;100.00;95835.88;5072114;28;20689;-64
2022/11/13 02:01:43;;;;;;;8.40;5.53;;;;;;;10.12;100.00;95836.06;5072298;28;20193;-63
2022/11/13 02:04:08;;;;;;;7.73;5.70;;;;;;;10.13;100.00;95824.16;5072141;28;20204;-63
2022/11/13 02:07:05;;;;;;;11.10;6.20;;;;;;;10.01;100.00;95822.38;5071978;28;20719;-60
2022/11/13 02:09:40;;;;;;;6.80;5.63;;;;;;;10.05;100.00;95819.56;5052173;28;20232;-63
2022/11/13 02:12:09;;;;;;;6.97;5.67;;;;;;;10.03;100.00;95833.25;5072053;28;20271;-64
2022/11/13 02:14:37;;;;;;;8.43;5.93;;;;;;;9.99;100.00;95812.31;5071928;28;20690;-62
2022/11/13 02:17:07;;;;;;;13.17;6.43;;;;;;;10.10;100.00;95829.44;5071991;28;20181;-64
2022/11/13 02:19:41;;;;;;;8.07;5.93;;;;;;;9.90;100.00;95805.28;5071711;28;20209;-63
2022/11/13 02:22:15;;;;;;;8.20;6.10;;;;;;;9.97;100.00;95816.69;5071647;28;20207;-64
2022/11/13 02:24:43;;;;;;;8.07;5.27;;;;;;;10.00;100.00;95800.41;5071870;28;20207;-61
2022/11/13 02:27:27;;;;;;;8.63;6.00;;;;;;;9.99;100.00;95801.34;5071635;28;20213;-61
2022/11/13 02:29:52;;;;;;;6.83;5.57;;;;;;;10.04;100.00;95805.22;5071838;28;20659;-63
2022/11/13 02:32:17;;;;;;;8.73;5.93;;;;;;;9.94;100.00;95803.34;5053658;28;20193;-61
2022/11/13 02:34:43;;;;;;;7.83;5.93;;;;;;;9.94;100.00;95799.09;5071771;28;20204;-64
2022/11/13 02:37:08;;;;;;;7.30;5.63;;;;;;;9.91;100.00;95790.84;5071551;28;20283;-60
2022/11/13 02:39:34;;;;;;;8.60;6.00;;;;;;;10.00;100.00;95798.69;5071400;28;20220;-63
2022/11/13 02:41:59;;;;;;;6.60;5.40;;;;;;;9.93;100.00;95781.41;5053476;28;20283;-63
2022/11/13 02:44:24;;;;;;;8.77;6.77;;;;;;;9.96;100.00;95794.72;5071466;28;20212;-63
2022/11/13 02:46:50;;;;;;;8.97;6.50;;;;;;;9.91;100.00;95785.78;5071251;28;20242;-62
2022/11/13 02:49:15;;;;;;;7.97;6.27;;;;;;;9.98;100.00;95805.59;5071208;28;20212;-61
2022/11/13 02:51:41;;;;;;;9.07;6.13;;;;;;;10.06;100.00;95793.22;5078869;22;20294;-60
2022/11/13 02:54:06;;;;;;;8.30;6.57;;;;;;;10.13;100.00;95801.31;5071224;28;20246;-62
2022/11/13 02:56:31;;;;;;;7.57;5.70;;;;;;;10.20;100.00;95809.34;5071246;28;20211;-62
2022/11/13 02:58:57;;;;;;;7.57;5.87;;;;;;;10.17;100.00;95820.53;5071604;28;20204;-61
2022/11/13 03:01:23;;;;;;;7.73;5.80;;;;;;;10.09;100.00;95813.38;5071317;28;20185;-62
2022/11/13 03:06:13;;;;;;;7.60;6.40;;;;;;;10.28;100.00;95828.25;5075223;22;20279;-61
2022/11/13 03:08:39;;;;;;;7.97;6.40;;;;;;;10.29;100.00;95831.59;5053013;28;20455;-64
2022/11/13 03:11:09;;;;;;;9.30;7.00;;;;;;;10.12;100.00;95812.38;5071123;28;20187;-63
2022/11/13 03:13:36;;;;;;;8.00;6.17;;;;;;;10.21;100.00;95826.22;5071103;28;20225;-61
2022/11/13 03:16:19;;;;;;;8.37;6.20;;;;;;;10.27;100.00;95830.91;5071299;28;20643;-61
2022/11/13 03:18:44;;;;;;;7.13;5.60;;;;;;;10.17;100.00;95809.53;5070051;28;20291;-60
2022/11/13 03:21:14;;;;;;;8.33;6.07;;;;;;;10.35;100.00;95828.66;5071132;28;20255;-60
2022/11/13 03:23:44;;;;;;;7.77;6.17;;;;;;;10.39;100.00;95850.44;5052930;28;20180;-61
2022/11/13 03:26:11;;;;;;;11.00;5.80;;;;;;;10.35;100.00;95818.50;5071126;28;20216;-60
2022/11/13 03:28:37;;;;;;;7.93;6.43;;;;;;;10.43;100.00;95829.81;5070874;28;20184;-62
2022/11/13 03:31:03;;;;;;;6.87;5.57;;;;;;;10.39;100.00;95830.09;5052905;28;20185;-60
2022/11/13 03:33:29;;;;;;;8.60;6.30;;;;;;;10.33;100.00;95830.50;5070741;28;20196;-64
2022/11/13 03:35:55;;;;;;;8.47;6.17;;;;;;;10.44;100.00;95843.34;5078124;22;20220;-64
2022/11/13 03:38:21;;;;;;;9.20;5.87;;;;;;;10.51;100.00;95854.72;5071071;28;20185;-60
2022/11/13 03:40:47;;;;;;;9.17;5.60;;;;;;;10.34;100.00;95829.59;5070952;28;20251;-60
2022/11/13 03:43:12;;;;;;;8.40;5.93;;;;;;;10.44;100.00;95836.53;5070690;28;20268;-64
2022/11/13 03:45:38;;;;;;;9.07;6.57;;;;;;;10.57;100.00;95849.25;5071137;28;20312;-62
2022/11/13 03:48:03;;;;;;;9.37;5.87;;;;;;;10.47;100.00;95854.13;5070610;28;20545;-59
2022/11/13 03:50:29;;;;;;;9.60;6.30;;;;;;;10.23;100.00;95826.94;5070631;28;20212;-61
2022/11/13 03:52:54;;;;;;;6.77;6.00;;;;;;;10.33;100.00;95835.59;5052669;28;20741;-63
2022/11/13 03:55:20;;;;;;;8.30;5.87;;;;;;;10.30;100.00;95825.63;5070690;28;20243;-62
2022/11/13 03:57:46;;;;;;;8.27;5.90;;;;;;;10.35;100.00;95829.50;5070749;28;20610;-62
2022/11/13 04:00:12;;;;;;;8.70;6.30;;;;;;;10.26;100.00;95825.00;5070507;28;20702;-61
2022/11/13 04:02:38;;;;;;;8.90;5.93;;;;;;;10.38;100.00;95823.41;5052393;28;20185;-61
2022/11/13 04:05:04;;;;;;;9.17;6.63;;;;;;;10.30;100.00;95816.28;5070311;28;20831;-64
2022/11/13 04:07:30;;;;;;;7.23;6.23;;;;;;;10.47;100.00;95826.16;5070251;28;20193;-63
2022/11/13 04:09:55;;;;;;;7.60;5.87;;;;;;;10.43;100.00;95839.16;5052254;28;20720;-61
2022/11/13 04:12:20;;;;;;;7.57;6.33;;;;;;;10.43;100.00;95832.34;5070482;28;20274;-62
2022/11/13 04:14:46;;;;;;;10.53;6.67;;;;;;;10.44;100.00;95821.28;5052389;28;20300;-61
2022/11/13 04:17:11;;;;;;;7.60;6.07;;;;;;;10.42;100.00;95819.75;5070122;28;20208;-61
2022/11/13 04:19:37;;;;;;;9.73;6.70;;;;;;;10.47;100.00;95822.78;5069971;28;20221;-63
2022/11/13 04:22:02;;;;;;;9.27;6.47;;;;;;;10.40;100.00;95812.22;5070078;28;20185;-63
2022/11/13 04:24:27;;;;;;;9.20;6.90;;;;;;;10.34;100.00;95814.34;5070179;28;20213;-62
2022/11/13 04:26:53;;;;;;;11.83;7.83;;;;;;;10.35;100.00;95803.25;5052155;28;20580;-60
2022/11/13 04:29:18;;;;;;;12.47;8.93;;;;;;;10.21;100.00;95805.88;5071172;28;20209;-63
2022/11/13 04:31:43;;;;;;;12.60;7.83;;;;;;;10.26;100.00;95808.94;5073434;28;20596;-63
2022/11/13 04:34:09;;;;;;;12.87;9.47;;;;;;;10.17;100.00;95789.19;5073499;28;20706;-61
2022/11/13 04:36:34;;;;;;;13.50;10.20;;;;;;;10.19;100.00;95795.00;5055584;28;20196;-61
2022/11/13 04:39:00;;;;;;;13.90;9.60;;;;;;;10.16;100.00;95808.72;5055344;28;20304;-61
2022/11/13 04:44:10;;;;;;;17.10;11.63;;;;;;;9.99;100.00;95781.03;5073306;28;20688;-59
2022/11/13 04:46:36;;;;;;;16.20;10.87;;;;;;;10.00;100.00;95780.91;5073330;28;20205;-63
2022/11/13 04:49:04;;;;;;;18.03;11.57;;;;;;;9.99;100.00;95779.31;5073454;28;20211;-63
2022/11/13 04:51:29;;;;;;;14.37;11.40;;;;;;;10.05;100.00;95781.44;5073437;28;20650;-61
2022/11/13 04:53:55;;;;;;;16.43;11.33;;;;;;;9.99;100.00;95771.69;5072949;28;20191;-61
2022/11/13 04:56:20;;;;;;;16.77;12.30;;;;;;;10.10;100.00;95781.16;5073106;28;20177;-64
2022/11/13 04:58:46;;;;;;;16.33;11.60;;;;;;;10.05;100.00;95778.91;5072847;28;20208;-62
2022/11/13 05:01:11;;;;;;;16.50;11.80;;;;;;;10.07;100.00;95788.97;5073221;28;20191;-61
2022/11/13 05:03:37;;;;;;;17.27;11.53;;;;;;;10.14;100.00;95782.59;5072978;28;20223;-62
2022/11/13 05:06:04;;;;;;;15.90;11.50;;;;;;;10.14;100.00;95790.22;5054848;28;20196;-61
2022/11/13 05:08:30;;;;;;;15.47;10.70;;;;;;;10.06;100.00;95783.06;5073033;28;20221;-64
2022/11/13 05:10:55;;;;;;;17.27;11.73;;;;;;;10.01;100.00;95785.09;5054631;28;20304;-60
2022/11/13 05:13:21;;;;;;;17.00;10.77;;;;;;;10.01;100.00;95784.28;5072938;28;20181;-61
2022/11/13 05:15:46;;;;;;;16.10;11.90;;;;;;;10.09;100.00;95793.03;5073128;28;20289;-63
2022/11/13 05:18:12;;;;;;;16.87;11.73;;;;;;;10.01;100.00;95784.28;5072811;28;20541;-62
2022/11/13 05:20:37;;;;;;;14.63;11.47;;;;;;;10.06;100.00;95807.63;5072882;28;20220;-60
2022/11/13 05:23:03;;;;;;;17.37;12.63;;;;;;;9.97;100.00;95796.38;5072665;28;20209;-59
2022/11/13 05:25:29;;;;;;;15.17;11.47;;;;;;;10.03;100.00;95798.50;5072845;28;20800;-61
2022/11/13 05:27:56;;;;;;;14.67;11.43;;;;;;;10.05;100.00;95795.88;5072722;28;20200;-60
2022/11/13 05:30:23;;;;;;;17.83;12.60;;;;;;;10.17;100.00;95815.44;5072608;28;20208;-61
2022/11/13 05:32:48;;;;;;;17.10;11.53;;;;;;;10.10;100.00;95798.94;5054718;28;20193;-64
2022/11/13 05:35:14;;;;;;;20.07;12.00;;;;;;;10.16;100.00;95805.38;5072718;28;20274;-60
2022/11/13 05:37:39;;;;;;;15.27;11.53;;;;;;;10.24;100.00;95793.00;5072655;28;20551;-63
2022/11/13 05:40:05;;;;;;;16.63;11.97;;;;;;;10.14;100.00;95815.63;5054539;28;20221;-61
2022/11/13 05:42:30;;;;;;;17.23;11.23;;;;;;;10.29;100.00;95821.44;5071641;28;20220;-60
2022/11/13 05:44:56;;;;;;;16.60;11.37;;;;;;;10.09;100.00;95815.91;5072315;28;20228;-61
2022/11/13 05:47:21;;;;;;;15.20;10.73;;;;;;;10.41;100.00;95813.03;5072223;28;20211;-63
2022/11/13 05:49:47;;;;;;;15.80;11.23;;;;;;;10.64;100.00;95853.03;5072091;28;20291;-64
2022/11/13 05:52:12;;;;;;;14.90;11.30;;;;;;;10.76;100.00;95875.94;5072281;28;20230;-63
2022/11/13 05:54:37;;;;;;;18.27;12.53;;;;;;;10.92;100.00;95904.53;5054058;28;20209;-60
2022/11/13 05:57:03;;;;;;;18.77;11.07;;;;;;;10.85;100.00;95903.28;5072104;28;20188;-63
2022/11/13 05:59:35;;;;;;;15.87;10.87;;;;;;;10.83;100.00;95902.56;5071860;28;20216;-61
2022/11/13 06:02:00;;;;;;;15.87;11.47;;;;;;;10.96;100.00;95900.03;5054008;28;20251;-63
2022/11/13 06:04:26;;;;;;;16.43;11.73;;;;;;;10.90;100.00;95914.00;5072086;28;20204;-64
2022/11/13 06:06:51;;;;;;;17.80;12.43;;;;;;;10.91;100.00;95917.31;5071897;28;20338;-62
2022/11/13 06:09:17;;;;;;;15.27;11.23;;;;;;;10.79;100.00;95925.75;5053950;28;20208;-63
2022/11/13 06:11:43;;;;;;;18.63;12.80;;;;;;;10.72;100.00;95897.38;5071715;28;20188;-63
2022/11/13 06:14:08;;;;;;;17.53;12.30;;;;;;;10.71;100.00;95898.28;5071883;28;20216;-59
2022/11/13 06:16:36;;;;;;;17.17;11.90;;;;;;;10.75;100.00;95906.53;5071779;28;20193;-60
2022/11/13 06:19:04;;;;;;;16.63;11.37;;;;;;;10.67;100.00;95898.59;5071650;28;20201;-60
2022/11/13 06:21:31;;;;;;;15.23;11.83;;;;;;;10.53;100.00;95889.31;5071671;28;20303;-60
2022/11/13 06:23:58;;;;;;;17.13;11.73;;;;;;;10.55;100.00;95879.03;5071664;28;20207;-61
2022/11/13 06:26:27;;;;;;;18.33;11.93;;;;;;;10.39;100.00;95863.16;5071616;28;20185;-62
2022/11/13 06:28:52;;;;;;;17.43;12.20;;;;;;;10.44;100.00;95859.41;5053553;28;20189;-63
2022/11/13 06:31:22;;;;;;;17.30;12.00;;;;;;;10.31;100.00;95858.56;5071774;28;20319;-61
2022/11/13 06:33:48;;;;;;;16.73;12.03;;;;;;;10.31;100.00;95873.00;5071442;28;20181;-61
2022/11/13 06:36:20;;;;;;;18.17;12.00;;;;;;;10.38;100.00;95874.25;5071452;28;20184;-64
2022/11/13 06:38:46;;;;;;;16.47;11.13;;;;;;;10.26;100.00;95865.66;5071328;28;20266;-62
2022/11/13 06:41:14;;;;;;;19.53;12.33;;;;;;;10.37;100.00;95858.16;5071226;28;20589;-61
2022/11/13 06:43:39;;;;;;;18.03;12.27;;;;;;;10.29;100.00;95864.66;5071340;28;20187;-63
2022/11/13 06:46:15;;;;;;;17.03;12.00;;;;;;;10.34;100.00;95873.63;5053305;28;20264;-64
2022/11/13 06:48:40;;;;;;;16.33;11.70;;;;;;;10.28;100.00;95870.66;5071274;28;20172;-60
2022/11/13 06:51:10;;;;;;;20.83;11.50;;;;;;;10.23;100.00;95837.09;5071097;28;20196;-64
2022/11/13 06:53:36;;;;;;;19.70;12.73;;;;;;;10.34;100.00;95853.31;5069919;28;20261;-64
2022/11/13 06:56:05;;;;;;;16.13;11.97;;;;;;;10.39;100.00;95880.94;5071514;28;20730;-61
2022/11/13 06:58:31;;;;;;;17.47;11.87;;;;;;;10.38;100.00;95875.06;5071065;28;20192;-61
2022/11/13 07:00:57;;;;;;;18.27;12.10;;;;;;;10.48;100.00;95900.69;5070739;28;20748;-62
2022/11/13 07:03:24;;;;;;;17.03;12.03;;;;;;;10.51;100.00;95898.78;5078729;22;20217;-62
2022/11/13 07:05:50;;;;;;;17.10;12.67;;;;;;;10.51;100.00;95890.31;5071025;28;20714;-60
2022/11/13 07:08:16;;;;;;;19.43;12.80;;;;;;;10.53;100.00;95865.59;5070903;28;20213;-60
2022/11/13 07:10:42;;;;;;;18.57;11.80;;;;;;;10.59;100.00;95909.25;5070849;28;20656;-61
2022/11/13 07:13:09;;;;;;;19.77;12.13;;;;;;;10.65;100.00;95908.03;5071110;28;20557;-60
2022/11/13 07:15:41;;;;;;;17.97;11.47;;;;;;;10.65;100.00;95934.28;5070977;28;20208;-59
2022/11/13 07:18:07;;;;;;;18.57;13.20;;;;;;;10.60;100.00;95900.72;5071029;28;20193;-61
2022/11/13 07:20:33;;;;;;;17.73;12.83;;;;;;;10.59;100.00;95908.44;5070687;28;20234;-60
2022/11/13 07:23:00;;;;;;;18.57;12.47;;;;;;;10.48;100.00;95905.78;5070874;28;20200;-62
2022/11/13 07:25:27;;;;;;;15.40;11.47;;;;;;;10.53;100.00;95903.75;5071164;28;20240;-62
2022/11/13 07:27:53;;;;;;;21.37;12.33;;;;;;;10.61;100.00;95926.94;5070683;28;20666;-64
2022/11/13 07:30:19;;;;;;;18.27;11.57;;;;;;;10.60;100.00;95910.09;5070853;28;20236;-64
2022/11/13 07:32:45;;;;;;;17.03;12.47;;;;;;;10.64;100.00;95916.59;5070690;28;20189;-63
2022/11/13 07:35:10;;;;;;;15.23;11.13;;;;;;;10.65;100.00;95913.13;5070619;28;20215;-61
2022/11/13 07:37:36;;;;;;;17.67;11.77;;;;;;;10.89;100.00;95962.41;5052836;28;20188;-61
2022/11/13 07:40:03;;;;;;;21.17;14.00;;;;;;;10.82;100.00;95933.22;5052481;28;20228;-62
2022/11/13 07:42:28;;;;;;;18.40;13.20;;;;;;;10.83;100.00;95952.63;5070572;28;20189;-63
2022/11/13 07:44:54;;;;;;;21.27;12.43;;;;;;;10.90;100.00;95953.88;5070891;28;20213;-62
2022/11/13 07:47:19;;;;;;;19.10;12.90;;;;;;;10.92;100.00;95967.31;5070681;28;20229;-63
2022/11/13 07:49:45;;;;;;;17.93;12.93;;;;;;;10.93;100.00;95963.84;5070475;28;20269;-61
2022/11/13 07:52:10;;;;;;;17.83;13.30;;;;;;;10.96;100.00;95953.47;5070418;28;20241;-64
2022/11/13 07:54:35;;;;;;;22.23;12.67;;;;;;;10.84;100.00;95951.72;5052930;28;20382;-63
2022/11/13 07:57:01;;;;;;;16.87;12.17;;;;;;;10.79;100.00;95959.66;5070476;28;20222;-60
2022/11/13 07:59:26;;;;;;;20.07;13.50;;;;;;;10.86;100.00;95939.72;5070495;28;20277;-62
2022/11/13 08:01:52;;;;;;;17.50;12.63;;;;;;;10.95;100.00;95967.09;5052217;28;20686;-62
2022/11/13 08:04:17;;;;;;;20.90;13.63;;;;;;;11.06;100.00;95963.84;5071471;28;20212;-61
2022/11/13 08:06:43;;;;;;;18.27;12.30;;;;;;;11.10;100.00;95983.91;5073890;28;20189;-61
2022/11/13 08:09:08;;;;;;;21.03;13.60;;;;;;;10.94;100.00;95960.38;5073954;28;20238;-61
2022/11/13 08:11:34;;;;;;;17.90;12.93;;;;;;;10.83;100.00;95970.44;5073760;28;20189;-62
2022/11/13 08:14:00;;;;;;;16.60;11.77;;;;;;;10.91;100.00;95970.75;5073773;28;20223;-62
2022/11/13 08:16:26;;;;;;;22.43;13.30;;;;;;;10.83;100.00;95942.44;5073633;28;20193;-61
2022/11/13 08:18:51;;;;;;;17.23;12.60;;;;;;;10.65;100.00;95923.28;5073747;28;20669;-62
2022/11/13 08:21:17;;;;;;;17.97;12.80;;;;;;;10.80;100.00;95940.13;5055610;28;20229;-63
2022/11/13 08:23:43;;;;;;;18.63;13.63;;;;;;;10.73;100.00;95914.25;5055596;28;20227;-62
2022/11/13 08:26:09;;;;;;;19.97;13.20;;;;;;;10.80;100.00;95922.31;5055722;28;20196;-59
2022/11/13 08:28:35;;;;;;;21.53;14.30;;;;;;;10.86;100.00;95932.91;5073539;28;20197;-60
2022/11/13 08:31:01;;;;;;;18.50;13.07;;;;;;;10.86;100.00;95932.91;5073173;28;20351;-65
2022/11/13 08:33:27;;;;;;;17.00;13.57;;;;;;;10.84;100.00;95916.13;5073449;28;20189;-63
2022/11/13 08:35:58;;;;;;;19.70;13.40;;;;;;;10.90;100.00;95938.59;5073297;28;20563;-62
2022/11/13 08:38:24;;;;;;;21.30;13.63;;;;;;;10.96;100.00;95928.84;5073707;28;20189;-63
2022/11/13 08:40:50;;;;;;;17.97;12.73;;;;;;;11.03;100.00;95946.25;5073081;28;20208;-60
2022/11/13 08:43:16;;;;;;;18.57;12.93;;;;;;;10.92;100.00;95944.41;5073332;28;20193;-62
2022/11/13 08:45:46;;;;;;;19.77;13.77;;;;;;;10.94;100.00;95938.31;5073258;28;20201;-60
2022/11/13 08:48:11;;;;;;;18.87;12.80;;;;;;;10.95;100.00;95956.91;5073441;28;20662;-64
2022/11/13 08:50:38;;;;;;;16.40;12.83;;;;;;;10.85;100.00;95938.09;5055228;28;20208;-61
2022/11/13 08:53:04;;;;;;;20.20;13.60;;;;;;;10.75;100.00;95916.69;5073156;28;20674;-64
2022/11/13 08:55:31;;;;;;;23.40;14.83;;;;;;;10.88;100.00;95935.34;5073037;28;20204;-61
2022/11/13 08:58:01;;;;;;;18.30;14.17;;;;;;;10.78;100.00;95930.06;5054957;28;20207;-62
2022/11/13 09:00:28;;;;;;;19.57;14.57;;;;;;;10.79;100.00;95925.75;5072998;28;20227;-61
2022/11/13 09:02:57;;;;;;;21.87;14.00;;;;;;;10.86;100.00;95938.00;5073072;28;20188;-61
2022/11/13 09:05:24;;;;;;;19.17;13.70;;;;;;;10.78;100.00;95939.41;5072916;28;20219;-63
2022/11/13 09:07:50;;;;;;;19.70;12.83;;;;;;;10.78;100.00;95941.94;5073011;28;20234;-62
2022/11/13 09:10:17;;;;;;;16.00;13.47;;;;;;;10.74;100.00;95925.25;5072977;28;20208;-61
2022/11/13 09:12:43;;;;;;;20.70;14.07;;;;;;;10.87;100.00;95931.16;5072614;28;20185;-61
2022/11/13 09:15:10;;;;;;;20.57;14.33;;;;;;;10.90;100.00;95948.78;5054287;28;20236;-63
2022/11/13 09:17:35;;;;;;;20.47;14.70;;;;;;;11.00;100.00;95947.28;5072306;28;20193;-62
2022/11/13 09:20:02;;;;;;;19.97;14.80;;;;;;;10.87;100.00;95942.16;5080547;22;20229;-60
2022/11/13 09:22:27;;;;;;;19.40;14.83;;;;;;;10.96;100.00;95953.47;5072649;28;20214;-62
2022/11/13 09:24:53;;;;;;;20.63;15.17;;;;;;;11.15;100.00;95968.34;5072459;28;20205;-59
2022/11/13 09:27:18;;;;;;;18.07;13.40;;;;;;;11.29;100.00;95989.41;5072718;28;20675;-61
2022/11/13 09:29:43;;;;;;;19.17;14.60;;;;;;;10.99;100.00;95969.34;5072692;28;20262;-61
2022/11/13 09:32:09;;;;;;;17.83;14.23;;;;;;;10.96;100.00;95956.00;5072490;28;20673;-62
2022/11/13 09:34:34;;;;;;;17.97;13.67;;;;;;;10.91;100.00;95940.22;5072720;28;20204;-63
2022/11/13 09:37:00;;;;;;;17.13;12.57;;;;;;;10.87;100.00;95931.97;5072447;28;20200;-61
2022/11/13 09:39:25;;;;;;;17.93;13.63;;;;;;;10.95;100.00;95942.47;5072190;28;20273;-64
2022/11/13 09:42:14;;;;;;;19.27;15.00;;;;;;;10.95;100.00;95923.84;5054450;28;20192;-60
2022/11/13 09:44:46;;;;;;;18.53;14.37;;;;;;;11.00;100.00;95949.81;5072310;28;20551;-62
2022/11/13 09:47:20;;;;;;;20.30;14.37;;;;;;;10.93;100.00;95930.75;5072509;28;20192;-63
2022/11/13 09:49:57;;;;;;;21.60;14.20;;;;;;;11.02;100.00;95958.16;5072463;28;20215;-63
2022/11/13 09:52:31;;;;;;;18.97;15.03;;;;;;;11.03;100.00;95933.53;5072370;28;20188;-61
2022/11/13 09:54:57;;;;;;;16.83;13.63;;;;;;;11.03;100.00;95936.09;5072682;28;20209;-63
2022/11/13 09:57:55;;;;;;;20.33;14.00;;;;;;;11.12;100.00;95969.38;5072030;28;20184;-62
2022/11/13 10:00:21;;;;;;;21.53;15.87;;;;;;;11.35;100.00;95975.50;5072178;28;20698;-60
2022/11/13 10:02:56;;;;;;;21.87;15.30;;;;;;;11.27;100.00;95983.63;5053995;28;20275;-61
2022/11/13 10:06:01;;;;;;;20.60;15.70;;;;;;;11.48;100.00;95974.56;5054013;28;20212;-61
2022/11/13 10:08:51;;;;;;;19.30;14.87;;;;;;;11.46;100.00;95965.38;5071948;28;20382;-64
2022/11/13 10:11:22;;;;;;;23.03;15.70;;;;;;;11.54;100.00;95961.41;5071908;28;20724;-64
2022/11/13 10:13:58;;;;;;;21.07;15.23;;;;;;;11.48;100.00;95961.81;5071886;28;20569;-62
2022/11/13 10:16:31;;;;;;;20.37;14.90;;;;;;;11.53;100.00;95990.31;5072001;28;20639;-61
2022/11/13 10:19:11;;;;;;;20.33;14.53;;;;;;;11.53;100.00;95990.31;5071807;28;20671;-61
2022/11/13 10:21:43;;;;;;;19.57;15.03;;;;;;;11.57;100.00;95971.38;5071883;28;20222;-65
2022/11/13 10:24:21;;;;;;;21.50;15.33;;;;;;;11.68;100.00;95988.53;5071972;28;20219;-60
2022/11/13 10:26:46;;;;;;;18.70;14.17;;;;;;;11.87;100.00;96032.25;5071915;28;20553;-61
2022/11/13 10:29:14;;;;;;;21.10;14.83;;;;;;;11.71;100.00;95999.34;5071402;28;20287;-63
2022/11/13 10:31:44;;;;;;;20.57;15.57;;;;;;;11.80;100.00;95982.59;5071648;28;20256;-63
2022/11/13 10:34:11;;;;;;;20.43;15.30;;;;;;;11.95;100.00;95978.19;5053731;28;20236;-62
2022/11/13 10:37:22;;;;;;;20.13;15.93;;;;;;;12.00;100.00;95983.81;5053419;28;20271;-64
2022/11/13 10:39:48;;;;;;;20.67;16.03;;;;;;;12.26;100.00;96024.41;5044622;28;20236;-64
2022/11/13 10:42:26;;;;;;;17.53;14.50;;;;;;;12.44;100.00;96028.22;5053510;28;20188;-62
2022/11/13 10:44:55;;;;;;;18.33;14.03;;;;;;;12.40;100.00;96056.59;5071645;28;20296;-61
2022/11/13 10:47:23;;;;;;;17.33;14.27;;;;;;;12.40;100.00;96033.66;5071240;28;20191;-63
2022/11/13 10:49:48;;;;;;;20.23;15.90;;;;;;;12.31;100.00;96030.00;5071266;28;20211;-60
2022/11/13 10:52:25;;;;;;;18.93;15.20;;;;;;;12.44;100.00;96014.66;5071331;28;20181;-64
2022/11/13 10:55:23;;;;;;;22.47;15.70;;;;;;;12.57;100.00;96021.34;5071801;28;20684;-62
2022/11/13 10:57:57;;;;;;;19.63;14.63;;;;;;;12.68;100.00;96026.47;5070697;28;20200;-63
2022/11/13 11:00:32;;;;;;;18.53;14.00;;;;;;;12.76;100.00;96020.03;5071493;28;20208;-63
2022/11/13 11:02:58;;;;;;;15.57;13.40;;;;;;;12.59;100.00;96028.88;5053633;28;20692;-63
2022/11/13 11:05:25;;;;;;;21.27;14.87;;;;;;;12.56;100.00;96003.59;5071636;28;20683;-63
2022/11/13 11:07:54;;;;;;;20.10;15.17;;;;;;;12.51;100.00;95996.25;5071049;28;20185;-61
2022/11/13 11:10:22;;;;;;;21.37;15.37;;;;;;;12.60;100.00;96013.44;5070991;28;20212;-62
2022/11/13 11:12:53;;;;;;;21.03;15.73;;;;;;;12.62;100.00;95987.84;5052923;28;20230;-59
2022/11/13 11:15:27;;;;;;;27.60;15.33;;;;;;;12.45;100.00;95973.75;5071313;28;20217;-64
2022/11/13 11:18:05;;;;;;;20.17;15.13;;;;;;;12.55;100.00;95973.91;5071354;28;20551;-62
2022/11/13 11:20:37;;;;;;;21.03;14.60;;;;;;;12.45;100.00;95994.16;5071228;28;20219;-62
2022/11/13 11:23:22;;;;;;;20.40;13.77;;;;;;;12.50;100.00;95998.94;5052813;28;20199;-62
2022/11/13 11:26:06;;;;;;;20.30;14.80;;;;;;;12.43;100.00;95967.13;5070555;28;20224;-62